• Join FlightAware (Why Join?)
  • Login
  • US Flag 
02:04PM EDT


 

Airport Tracker/Info


-or-


 

Live Flight TrackerFlight Track Log ✈ LAN933 ✈ 22-Jul-2013 ✈ SAME / MDZ - SCEL / SCL

Flight Track Log - Related Links

Times and Time Zones

All times are in EDT time to prevent confusion due to time zone crossing. See the LAN933 flight status page for this flight to view local times or setup timezone preferences in your user account.

Time Position Orientation Groundspeed Altitude Reporting Facility
EDT Latitude Longitude Course Direction KTS MPH feet Rate Location/Type
04:24PM -32.8100 -68.7910 13° North 169 194 2,900  Level FlightAware
04:25PM -32.8040 -68.7860 35° Northeast 178 205 3,200 960 Climbing FlightAware
04:25PM -32.7990 -68.7760 59° Northeast 189 217 3,400 1,320 Climbing FlightAware
04:25PM -32.7910 -68.7440 73° East 236 272 4,200 2,700 Climbing FlightAware
04:26PM -32.7720 -68.7110 56° Northeast 238 274 6,100 2,880 Climbing FlightAware
04:27PM -32.7340 -68.6700 42° Northeast 269 310 8,000 2,700 Climbing FlightAware
04:27PM -32.7140 -68.6470 44° Northeast 277 319 9,200 3,300 Climbing FlightAware
04:28PM -32.6590 -68.5810 45° Northeast 298 343 11,800 3,480 Climbing FlightAware
04:28PM -32.6530 -68.5640 67° East 290 334 12,300 2,700 Climbing FlightAware
04:28PM -32.6540 -68.5380 93° East 272 313 13,200 3,480 Climbing FlightAware
04:29PM -32.6650 -68.5140 119° Southeast 247 284 14,400 2,880 Climbing FlightAware
04:30PM -32.7270 -68.5140 180° South 232 267 17,200 2,520 Climbing FlightAware
04:30PM -32.7410 -68.5690 253° West 262 302 19,000 1,680 Climbing FlightAware
04:31PM -32.7480 -68.6420 263° West 312 359 19,700 900 Climbing FlightAware
04:32PM -32.7570 -68.7200 262° West 354 407 20,400 1,020 Climbing FlightAware
04:33PM -32.7660 -68.8070 263° West 384 442 21,300 1,500 Climbing FlightAware
04:33PM -32.7750 -68.8970 263° West 395 455 22,600 1,980 Climbing FlightAware
04:34PM -32.7840 -68.9920 264° West 400 460 24,100 1,860 Climbing FlightAware
04:35PM -32.7940 -69.0860 263° West 412 474 25,300 1,800 Climbing FlightAware
04:35PM -32.8020 -69.1620 263° West 413 475 26,500 2,400 Climbing FlightAware
04:36PM -32.8130 -69.2760 263° West 395 455 28,800 2,220 Climbing FlightAware
04:37PM -32.8230 -69.3730 263° West 399 459 30,000 840 Climbing FlightAware
04:38PM -32.8300 -69.4480 264° West 402 463 30,000  Level FlightAware
04:38PM -32.8370 -69.5220 264° West 394 453 30,000  Level FlightAware
04:39PM -32.8470 -69.6230 263° West 397 457 30,000  Level FlightAware
04:40PM -32.8570 -69.7220 263° West 396 456 30,000  Level FlightAware
04:40PM -32.8640 -69.7880 263° West 396 456 30,000  Level FlightAware
04:41PM -32.8730 -69.8780 263° West 396 456 30,000 -2,580 Level FlightAware
04:42PM -32.8810 -69.9740 264° West 379 436 26,400 -3,540 Descending FlightAware
04:43PM -32.8720 -70.1370 274° West 407 468 23,400 -1,440 Descending FlightAware
04:44PM -32.8660 -70.2280 274° West 407 468 23,400  Level FlightAware
04:44PM -32.8610 -70.2960 275° West 407 468 23,400 -2,100 Level FlightAware
04:47PM -32.9356 -70.3642 218° Southwest  Level Estimated
04:48PM -32.9706 -70.3963 218° Southwest  Level Estimated
04:49PM -33.0055 -70.4283 218° Southwest  Level Estimated
04:50PM -33.0405 -70.4604 218° Southwest  Level Estimated
04:51PM -33.0754 -70.4925 218° Southwest  Level Estimated
04:52PM -33.1103 -70.5246 218° Southwest  Level Estimated
04:53PM -33.1453 -70.5568 218° Southwest  Level Estimated
04:53PM -33.1790 -70.8140 218° Southwest 230 265 4,700  Level FlightAware
04:53PM -33.1980 -70.8130 177° South 203 234 4,700 -780 Level FlightAware
04:54PM -33.2290 -70.8120 178° South 194 223 4,000 -840 Descending FlightAware
04:54PM -33.2630 -70.8090 176° South 189 217 3,700 -840 Descending FlightAware
04:56PM -33.3070 -70.8070 178° South 143 165 2,500 -960 Descending FlightAware
04:56PM -33.3330 -70.8060 178° South 139 160 2,000 -480 Descending FlightAware
04:57PM -33.3480 -70.8050 177° South 139 160 2,000  Level FlightAware
04:58PM -33.3920 -70.8030 178° South -1,440 Descending FlightAware
04:59PM -33.3950 -70.7970 121° Southeast  Level FlightAware
05:02PM -33.3930 -70.7858 244° Southwest  Level Estimated
05:03PM -33.3930 -70.7858 244° Southwest  Level Estimated
05:04PM -33.3930 -70.7858 244° Southwest  Level Estimated
05:05PM -33.3930 -70.7858 244° Southwest  Level Estimated
05:06PM -33.3930 -70.7858 244° Southwest  Level Estimated
05:07PM -33.3930 -70.7858 244° Southwest  Level Estimated